Time;durP1;ratioP1;P1;durP2;ratioP2;P2;SDS_P1;SDS_P2;PMS_P1;PMS_P2;Temp;Humidity;BMP_temperature;BMP_pressure;BME280_temperature;BME280_humidity;BME280_pressure;Samples;Min_cycle;Max_cycle;Signal;HPM_P1;HPM_P2
2022/01/08 00:00:00;;;;;;;15.90;7.13;;;;;;;0.93;84.41;100932.19;5120537;27;20080;-90
2022/01/08 00:02:26;;;;;;;14.87;7.10;;;;;;;0.93;84.57;100939.03;5119496;27;20035;-90
2022/01/08 00:04:51;;;;;;;12.30;7.43;;;;;;;0.93;84.04;100941.59;5124386;27;20032;-91
2022/01/08 00:07:16;;;;;;;13.23;7.07;;;;;;;0.93;84.08;100950.13;5126491;27;20114;-88
2022/01/08 00:09:41;;;;;;;17.23;7.60;;;;;;;0.95;84.35;100950.16;5128887;27;20053;-91
2022/01/08 00:12:07;;;;;;;13.13;6.93;;;;;;;0.93;84.33;100956.97;5128026;27;20399;-89
2022/01/08 00:14:32;;;;;;;13.47;7.37;;;;;;;0.90;84.07;100958.66;5124841;27;20103;-92
2022/01/08 00:16:58;;;;;;;13.30;7.20;;;;;;;0.87;84.09;100958.59;5125601;27;20043;-90
2022/01/08 00:19:24;;;;;;;16.17;7.70;;;;;;;0.87;83.74;100960.28;5122523;27;20031;-91
2022/01/08 00:21:49;;;;;;;13.27;7.13;;;;;;;0.83;84.20;100955.97;5119794;27;20030;-91
2022/01/08 00:24:15;;;;;;;14.33;7.63;;;;;;;0.83;84.10;100958.53;5120194;27;20055;-89
2022/01/08 00:26:41;;;;;;;14.87;7.40;;;;;;;0.80;83.85;100953.34;5119110;27;20921;-90
2022/01/08 00:29:06;;;;;;;15.00;7.47;;;;;;;0.78;83.51;100953.31;5126815;27;20039;-89
2022/01/08 00:31:31;;;;;;;12.27;6.83;;;;;;;0.77;84.01;100958.41;5125485;27;20019;-91
2022/01/08 00:33:56;;;;;;;15.77;7.97;;;;;;;0.74;83.78;100961.78;5129487;27;20023;-91
2022/01/08 00:36:22;;;;;;;14.47;7.63;;;;;;;0.71;83.67;100977.94;5124424;27;20063;-93
2022/01/08 00:38:47;;;;;;;16.67;8.27;;;;;;;0.70;83.73;100975.38;5119211;27;20026;-94
2022/01/08 00:41:12;;;;;;;13.60;7.20;;;;;;;0.69;83.78;100973.66;5124261;27;21976;-91
2022/01/08 00:43:38;;;;;;;13.87;7.60;;;;;;;0.68;83.39;100966.81;5131428;27;20019;-95
2022/01/08 00:46:04;;;;;;;14.63;7.57;;;;;;;0.64;83.79;100976.13;5125831;27;20110;-94
2022/01/08 00:48:29;;;;;;;16.43;7.97;;;;;;;0.63;83.88;100979.53;5135147;27;20378;-94
2022/01/08 00:50:54;;;;;;;13.27;7.73;;;;;;;0.61;83.51;100981.19;5138820;27;20036;-95
2022/01/08 00:53:20;;;;;;;14.43;7.90;;;;;;;0.63;83.98;100994.00;5137193;27;20378;-95
2022/01/08 00:55:46;;;;;;;12.63;7.67;;;;;;;0.61;84.04;100986.31;5135955;27;20382;-95
2022/01/08 00:58:11;;;;;;;15.27;7.63;;;;;;;0.60;83.89;100987.16;5128931;27;20470;-95
2022/01/08 01:00:37;;;;;;;16.13;7.93;;;;;;;0.60;84.27;100994.84;5131433;27;20081;-94
2022/01/08 01:03:03;;;;;;;14.67;8.23;;;;;;;0.59;83.93;100993.09;5136105;27;20035;-95
2022/01/08 01:05:29;;;;;;;15.60;8.07;;;;;;;0.58;84.21;100997.38;5133814;27;20079;-94
2022/01/08 01:07:54;;;;;;;15.50;8.27;;;;;;;0.57;84.32;100997.34;5130595;27;20039;-94
2022/01/08 01:10:21;;;;;;;15.97;7.53;;;;;;;0.55;84.21;100994.75;5133007;27;20035;-95
2022/01/08 01:12:47;;;;;;;15.77;7.53;;;;;;;0.56;83.97;100993.03;5129117;27;20019;-96
2022/01/08 01:15:14;;;;;;;18.67;8.17;;;;;;;0.56;83.70;100998.16;5136021;27;20427;-95
2022/01/08 01:17:40;;;;;;;14.40;7.73;;;;;;;0.57;84.10;100984.53;5143164;27;20125;-95
2022/01/08 01:20:08;;;;;;;15.17;7.20;;;;;;;0.58;84.08;100996.50;5139234;27;20115;-94
2022/01/08 01:22:47;;;;;;;17.47;7.50;;;;;;;0.58;83.77;100991.38;5130061;27;20676;-94
2022/01/08 01:25:17;;;;;;;13.13;7.40;;;;;;;0.57;83.99;100989.66;5136857;27;20050;-95
2022/01/08 01:28:10;;;;;;;17.07;7.40;;;;;;;0.54;83.48;100994.72;5139435;27;20036;-96
2022/01/08 01:41:12;;;;;;;15.20;7.20;;;;;;;0.45;83.55;100983.50;5132465;27;20512;-94
2022/01/08 01:41:47;;;;;;;13.00;6.83;;;;;;;0.43;83.54;100991.94;5138618;27;20122;-94
2022/01/08 01:47:03;;;;;;;11.93;6.95;;;;;;;0.40;83.68;101007.28;5134798;27;20026;-95
2022/01/08 01:49:31;;;;;;;13.70;7.13;;;;;;;0.40;83.43;101002.16;5136084;27;20023;-95
2022/01/08 01:51:59;;;;;;;15.47;7.27;;;;;;;0.37;83.84;101008.06;5137641;27;20069;-94
2022/01/08 01:54:25;;;;;;;15.07;7.63;;;;;;;0.36;83.84;100998.66;5131278;27;20218;-95
2022/01/08 01:56:50;;;;;;;14.80;7.40;;;;;;;0.35;84.00;101009.72;5130273;27;20465;-96
2022/01/08 01:59:15;;;;;;;12.60;7.30;;;;;;;0.34;84.02;101002.03;5153259;27;20033;-96
2022/01/08 02:01:41;;;;;;;13.50;7.73;;;;;;;0.31;83.76;100992.63;5132417;27;20038;-95
2022/01/08 02:04:06;;;;;;;14.60;7.27;;;;;;;0.28;83.96;100988.28;5121794;27;20039;-95
2022/01/08 02:06:31;;;;;;;19.93;7.80;;;;;;;0.28;83.83;100987.44;5126852;27;20039;-95
2022/01/08 02:08:57;;;;;;;16.27;8.17;;;;;;;0.26;83.77;100989.94;5127404;27;20054;-96
2022/01/08 02:11:22;;;;;;;17.20;8.03;;;;;;;0.25;83.65;100997.59;5129490;27;20059;-96
2022/01/08 02:13:48;;;;;;;19.47;8.23;;;;;;;0.25;84.14;100990.81;5136181;27;20709;-95
2022/01/08 02:16:17;;;;;;;12.93;8.27;;;;;;;0.24;83.91;100990.75;5132340;27;20018;-95
2022/01/08 02:18:50;;;;;;;14.70;8.03;;;;;;;0.24;83.91;100985.63;5137929;27;20047;-96
2022/01/08 02:21:16;;;;;;;16.37;8.57;;;;;;;0.21;83.74;100991.56;5129399;27;20039;-95
2022/01/08 02:23:42;;;;;;;17.70;8.97;;;;;;;0.20;83.73;100994.09;5132303;27;20048;-95
2022/01/08 02:26:10;;;;;;;14.77;8.80;;;;;;;0.19;83.68;100992.34;5132158;27;20401;-95
2022/01/08 02:28:38;;;;;;;15.97;9.47;;;;;;;0.19;83.67;101005.16;5123528;27;20034;-95
2022/01/08 02:31:04;;;;;;;19.10;9.20;;;;;;;0.17;84.14;100999.16;5128017;27;20028;-95
2022/01/08 02:33:30;;;;;;;16.77;9.50;;;;;;;0.14;84.04;101000.81;5130858;27;20042;-95
2022/01/08 02:35:56;;;;;;;15.30;9.37;;;;;;;0.14;84.01;100999.94;5121239;27;20019;-95
2022/01/08 02:38:23;;;;;;;17.83;9.93;;;;;;;0.12;83.99;100999.94;5129502;27;20163;-95
2022/01/08 02:40:56;;;;;;;18.77;10.70;;;;;;;0.11;84.20;100999.88;5136640;27;20454;-95
2022/01/08 02:43:23;;;;;;;17.07;10.37;;;;;;;0.10;84.70;101006.72;5139183;27;20056;-95
2022/01/08 02:45:49;;;;;;;17.63;10.33;;;;;;;0.10;84.36;101006.72;5141199;27;20027;-96
2022/01/08 02:48:14;;;;;;;21.50;10.87;;;;;;;0.10;84.16;101014.38;5134921;27;20041;-96
2022/01/08 02:50:39;;;;;;;17.27;10.87;;;;;;;0.10;84.57;101010.94;5131244;27;20112;-96
2022/01/08 02:53:05;;;;;;;19.83;11.37;;;;;;;0.08;84.81;101010.94;5123019;27;20110;-95
2022/01/08 02:55:30;;;;;;;19.93;10.87;;;;;;;0.07;84.43;101022.00;5127381;27;20102;-95
2022/01/08 02:57:55;;;;;;;17.73;10.23;;;;;;;0.06;84.77;101012.59;5122787;27;20039;-95
2022/01/08 03:00:21;;;;;;;22.33;10.50;;;;;;;0.08;84.83;101016.03;5138666;27;20458;-95
2022/01/08 03:02:49;;;;;;;19.53;10.93;;;;;;;0.07;84.80;101019.44;5127359;27;20030;-94
2022/01/08 03:05:16;;;;;;;19.23;10.87;;;;;;;0.06;84.66;101016.84;5137624;27;20114;-95
2022/01/08 03:07:43;;;;;;;19.67;10.90;;;;;;;0.04;85.12;101009.13;5134193;27;20089;-95
2022/01/08 03:10:11;;;;;;;22.67;11.00;;;;;;;0.02;85.09;101005.69;5127490;27;20031;-95
2022/01/08 03:12:43;;;;;;;20.30;10.67;;;;;;;0.02;84.98;101010.78;5137727;27;20106;-95
2022/01/08 03:15:15;;;;;;;18.40;10.40;;;;;;;0.04;84.83;101014.25;5132537;27;20015;-95
2022/01/08 03:17:41;;;;;;;22.73;11.20;;;;;;;0.02;85.07;101005.69;5137601;27;20031;-95
2022/01/08 03:20:11;;;;;;;20.53;11.30;;;;;;;0.00;84.89;101007.38;5142556;27;20053;-95
2022/01/08 03:22:38;;;;;;;21.27;10.40;;;;;;;-0.02;85.11;101007.31;5135766;27;20475;-96
2022/01/08 03:25:05;;;;;;;21.83;11.13;;;;;;;-0.02;85.44;101009.03;5137833;27;20483;-96
2022/01/08 03:27:30;;;;;;;19.87;11.03;;;;;;;-0.03;85.39;101012.41;5135402;27;20546;-95
2022/01/08 03:29:56;;;;;;;20.13;10.40;;;;;;;-0.02;85.03;101009.88;5141542;27;20027;-96
2022/01/08 03:32:22;;;;;;;21.33;10.37;;;;;;;-0.03;85.12;101017.53;5135337;27;20023;-95
2022/01/08 03:34:47;;;;;;;19.13;10.40;;;;;;;-0.03;84.65;101013.25;5132714;27;20032;-95
2022/01/08 03:37:13;;;;;;;18.13;9.73;;;;;;;-0.05;84.52;101014.06;5129826;27;20097;-96
2022/01/08 03:39:38;;;;;;;19.57;10.50;;;;;;;-0.05;84.77;101014.06;5140877;27;20315;-93
2022/01/08 03:42:04;;;;;;;17.13;10.30;;;;;;;-0.06;85.20;101022.56;5133266;27;20027;-94
2022/01/08 03:44:29;;;;;;;20.10;10.07;;;;;;;-0.09;84.99;101009.72;5134396;27;20042;-96
2022/01/08 03:47:10;;;;;;;18.57;9.50;;;;;;;-0.08;84.71;101014.00;5144457;27;20445;-95
2022/01/08 03:49:36;;;;;;;17.75;9.60;;;;;;;-0.08;84.83;101029.34;5146229;27;20470;-94
2022/01/08 03:52:02;;;;;;;18.60;9.63;;;;;;;-0.08;85.03;101014.00;5127603;27;20031;-94
2022/01/08 03:54:28;;;;;;;24.63;10.50;;;;;;;-0.09;85.04;101025.06;5125914;27;20119;-95
2022/01/08 03:56:53;;;;;;;17.20;9.70;;;;;;;-0.10;85.48;101025.88;5132870;27;20103;-94
2022/01/08 03:59:19;;;;;;;20.63;10.20;;;;;;;-0.09;85.08;101032.72;5134622;27;20019;-96
2022/01/08 04:01:44;;;;;;;19.77;9.83;;;;;;;-0.10;85.34;101021.66;5130813;27;20114;-96
2022/01/08 04:04:09;;;;;;;16.07;9.17;;;;;;;-0.11;85.00;101013.94;5131491;27;20624;-95
2022/01/08 04:06:35;;;;;;;19.07;9.30;;;;;;;-0.10;84.64;101015.66;5128350;27;20477;-94
2022/01/08 04:09:00;;;;;;;16.30;9.00;;;;;;;-0.12;84.91;101025.00;5122996;27;20054;-95
2022/01/08 04:11:26;;;;;;;21.00;9.20;;;;;;;-0.13;84.72;101028.38;5135493;27;20694;-95
2022/01/08 04:13:53;;;;;;;19.63;9.27;;;;;;;-0.12;84.87;101022.44;5130469;27;20023;-95
2022/01/08 04:16:24;;;;;;;18.00;9.37;;;;;;;-0.14;84.91;101024.97;5141602;27;20026;-95
2022/01/08 04:18:50;;;;;;;21.60;9.50;;;;;;;-0.13;85.41;101033.50;5135496;27;20023;-95
2022/01/08 04:24:05;;;;;;;18.37;9.03;;;;;;;-0.12;85.14;101041.22;5137183;27;20047;-95
2022/01/08 04:26:30;;;;;;;18.45;9.00;;;;;;;-0.12;85.09;101046.34;5131747;27;20037;-96
2022/01/08 04:28:55;;;;;;;17.90;8.80;;;;;;;-0.13;85.29;101042.03;5131216;27;20027;-96
2022/01/08 04:31:22;;;;;;;16.23;9.57;;;;;;;-0.13;85.51;101046.28;5129530;27;20038;-96
2022/01/08 04:33:48;;;;;;;19.43;9.73;;;;;;;-0.13;85.65;101043.72;5129986;27;20490;-95
2022/01/08 04:36:14;;;;;;;21.73;8.97;;;;;;;-0.13;84.93;101047.16;5135177;27;20023;-94
2022/01/08 04:38:39;;;;;;;23.37;9.00;;;;;;;-0.14;85.27;101044.56;5145343;27;20038;-95
2022/01/08 04:41:04;;;;;;;15.90;9.00;;;;;;;-0.14;84.85;101050.53;5138619;27;20040;-94
2022/01/08 04:43:30;;;;;;;15.23;8.87;;;;;;;-0.17;85.10;101051.31;5144109;27;20034;-95
2022/01/08 04:45:56;;;;;;;17.20;9.13;;;;;;;-0.17;84.90;101063.25;5132954;27;20036;-95
2022/01/08 04:48:22;;;;;;;18.43;9.07;;;;;;;-0.17;85.28;101060.69;5127620;27;20023;-95
2022/01/08 04:50:47;;;;;;;19.93;9.23;;;;;;;-0.17;85.75;101055.59;5130487;27;20474;-96
2022/01/08 04:53:12;;;;;;;17.73;8.87;;;;;;;-0.17;85.40;101059.00;5127666;27;20034;-94
2022/01/08 04:55:38;;;;;;;14.93;8.60;;;;;;;-0.17;85.25;101059.00;5123223;27;20060;-94
2022/01/08 04:58:05;;;;;;;26.63;8.93;;;;;;;-0.19;85.33;101058.13;5124902;27;20037;-96
2022/01/08 05:00:32;;;;;;;17.03;9.07;;;;;;;-0.19;85.74;101063.25;5128577;27;20057;-95
2022/01/08 05:02:58;;;;;;;16.30;9.07;;;;;;;-0.20;85.63;101063.19;5135326;27;20033;-95
2022/01/08 05:05:24;;;;;;;16.50;8.50;;;;;;;-0.21;85.49;101059.78;5135559;27;20011;-96
2022/01/08 05:07:49;;;;;;;18.73;8.90;;;;;;;-0.21;85.33;101067.44;5136629;27;20075;-95
2022/01/08 05:10:15;;;;;;;17.07;8.80;;;;;;;-0.23;85.24;101074.22;5130652;27;20038;-95
2022/01/08 05:12:40;;;;;;;18.23;8.60;;;;;;;-0.23;85.35;101066.53;5138508;27;20023;-96
2022/01/08 05:15:06;;;;;;;19.00;8.93;;;;;;;-0.23;85.83;101060.56;5136531;27;20046;-95
2022/01/08 05:17:33;;;;;;;13.73;8.97;;;;;;;-0.23;86.12;101075.91;5139226;27;20033;-96
2022/01/08 05:20:02;;;;;;;19.03;9.03;;;;;;;-0.23;85.95;101071.66;5138329;27;20072;-96
2022/01/08 05:22:29;;;;;;;18.57;8.80;;;;;;;-0.23;85.62;101070.78;5137201;27;20024;-95
2022/01/08 05:24:56;;;;;;;20.30;9.50;;;;;;;-0.24;86.15;101075.03;5129043;27;20037;-94
2022/01/08 05:27:22;;;;;;;15.13;8.37;;;;;;;-0.22;86.33;101067.41;5128647;27;20106;-95
2022/01/08 05:29:50;;;;;;;15.53;9.17;;;;;;;-0.24;85.72;101069.94;5123516;27;20493;-96
2022/01/08 05:32:16;;;;;;;14.73;8.67;;;;;;;-0.23;85.63;101061.44;5108017;27;20114;-96
2022/01/08 05:34:48;;;;;;;17.90;8.93;;;;;;;-0.23;86.17;101066.53;5127705;27;20053;-95
2022/01/08 05:37:14;;;;;;;;;;;;;;;-0.19;85.75;101076.03;5121571;27;20046;-96
2022/01/08 05:39:39;;;;;;;15.23;8.10;;;;;;;-0.22;85.87;101073.38;5129063;27;19961;-94
2022/01/08 05:42:05;;;;;;;16.00;8.77;;;;;;;-0.23;85.47;101071.66;5131381;27;20022;-94
2022/01/08 05:44:31;;;;;;;18.23;8.83;;;;;;;-0.24;85.85;101071.59;5129447;27;20027;-95
2022/01/08 05:46:56;;;;;;;15.67;8.90;;;;;;;-0.25;85.99;101072.44;5141436;27;20019;-96
2022/01/08 05:49:21;;;;;;;18.93;8.73;;;;;;;-0.26;85.73;101061.34;5142484;27;20091;-95
2022/01/08 05:51:47;;;;;;;16.83;8.70;;;;;;;-0.26;85.85;101076.69;5139353;27;20477;-95
2022/01/08 05:54:12;;;;;;;14.80;7.90;;;;;;;-0.28;85.84;101078.34;5127196;27;20035;-96
2022/01/08 05:56:37;;;;;;;13.73;8.30;;;;;;;-0.26;86.49;101076.69;5128782;27;20453;-94
2022/01/08 05:59:04;;;;;;;15.30;7.83;;;;;;;-0.23;86.22;101081.88;5141890;27;20117;-95
2022/01/08 06:01:31;;;;;;;15.30;7.47;;;;;;;-0.23;86.40;101075.91;5125187;27;20027;-94
2022/01/08 06:03:57;;;;;;;14.40;7.80;;;;;;;-0.23;86.08;101081.88;5132281;27;20034;-95
2022/01/08 06:06:22;;;;;;;13.90;7.60;;;;;;;-0.23;86.18;101094.69;5128476;27;20484;-94
2022/01/08 06:08:47;;;;;;;15.53;7.43;;;;;;;-0.23;86.27;101092.13;5121439;27;20034;-94
2022/01/08 06:11:13;;;;;;;16.53;6.87;;;;;;;-0.22;85.92;101098.06;5127594;27;20492;-96
2022/01/08 06:13:38;;;;;;;14.70;7.43;;;;;;;-0.22;86.28;101100.63;5133631;27;20023;-94
2022/01/08 06:16:03;;;;;;;13.47;7.53;;;;;;;-0.21;86.08;101104.91;5134668;27;20504;-95
2022/01/08 06:18:30;;;;;;;14.37;7.10;;;;;;;-0.21;86.00;101108.34;5133627;27;20026;-96
2022/01/08 06:20:59;;;;;;;20.53;7.50;;;;;;;-0.19;86.60;101103.28;5127881;27;20034;-96
2022/01/08 06:23:25;;;;;;;14.50;7.23;;;;;;;-0.16;86.04;101103.34;5118570;27;20027;-95
2022/01/08 06:25:50;;;;;;;12.63;7.30;;;;;;;-0.16;86.08;101104.19;5133116;27;20062;-95
2022/01/08 06:28:15;;;;;;;34.47;7.53;;;;;;;-0.13;85.75;101105.09;5140358;27;20035;-95
2022/01/08 06:30:41;;;;;;;15.57;7.37;;;;;;;-0.12;86.54;101104.25;5133724;27;20050;-96
2022/01/08 06:33:06;;;;;;;14.97;8.37;;;;;;;-0.11;85.78;101111.09;5127290;27;20030;-95
2022/01/08 06:35:31;;;;;;;14.53;8.00;;;;;;;-0.09;86.37;101105.22;5138470;27;20046;-93
2022/01/08 06:37:57;;;;;;;12.80;7.70;;;;;;;-0.08;86.15;101098.41;5126757;27;20031;-95
2022/01/08 06:40:22;;;;;;;13.13;7.30;;;;;;;-0.07;86.11;101100.13;5132828;27;20058;-95
2022/01/08 06:42:48;;;;;;;15.53;8.07;;;;;;;-0.09;86.03;101099.22;5129691;27;20110;-95
2022/01/08 06:45:13;;;;;;;15.90;8.10;;;;;;;-0.08;86.23;101095.84;5131902;27;20059;-95
2022/01/08 06:47:39;;;;;;;15.53;7.67;;;;;;;-0.07;86.51;101090.75;5133960;27;20114;-95
2022/01/08 06:50:05;;;;;;;17.20;8.03;;;;;;;-0.09;85.91;101089.88;5138836;27;20026;-94
2022/01/08 06:52:33;;;;;;;14.87;7.63;;;;;;;-0.07;86.33;101087.34;5136015;27;20027;-94
2022/01/08 06:54:58;;;;;;;16.97;8.30;;;;;;;-0.07;86.36;101087.34;5127573;27;20038;-96
2022/01/08 06:57:25;;;;;;;14.30;7.50;;;;;;;-0.08;86.30;101085.63;5132615;27;20987;-96
2022/01/08 06:59:50;;;;;;;14.20;8.10;;;;;;;-0.10;86.32;101082.16;5115641;27;20249;-95
2022/01/08 07:02:16;;;;;;;16.37;8.23;;;;;;;-0.09;86.31;101094.09;5125974;27;20227;-94
2022/01/08 07:04:41;;;;;;;16.80;7.70;;;;;;;-0.12;86.31;101082.13;5131221;27;20064;-94
2022/01/08 07:07:06;;;;;;;14.67;6.80;;;;;;;-0.12;86.30;101089.81;5124979;27;20027;-95
2022/01/08 07:09:32;;;;;;;13.33;7.53;;;;;;;-0.13;86.22;101090.63;5127896;27;20045;-95
2022/01/08 07:11:57;;;;;;;13.43;7.33;;;;;;;-0.16;86.25;101091.41;5139585;27;20039;-95
2022/01/08 07:14:22;;;;;;;14.57;7.47;;;;;;;-0.16;86.61;101093.97;5127638;27;20022;-94
2022/01/08 07:16:49;;;;;;;16.13;7.47;;;;;;;-0.19;86.29;101093.91;5122401;27;20038;-96
2022/01/08 07:19:14;;;;;;;13.23;7.07;;;;;;;-0.20;86.37;101097.31;5120992;27;20026;-93
2022/01/08 07:21:40;;;;;;;11.70;7.20;;;;;;;-0.21;86.91;101093.00;5138107;27;20080;-95
2022/01/08 07:24:05;;;;;;;18.23;7.80;;;;;;;-0.22;86.45;101095.53;5134539;27;20059;-95
2022/01/08 07:26:32;;;;;;;14.00;7.67;;;;;;;-0.22;86.66;101093.84;5131278;27;20063;-95
2022/01/08 07:28:57;;;;;;;19.03;8.00;;;;;;;-0.23;86.80;101092.13;5131320;27;20027;-96
2022/01/08 07:31:23;;;;;;;13.00;7.63;;;;;;;-0.24;86.62;101089.50;5128010;27;20459;-95
2022/01/08 07:33:49;;;;;;;15.93;7.63;;;;;;;-0.26;86.27;101092.03;5135462;27;20035;-95
2022/01/08 07:36:17;;;;;;;13.23;7.67;;;;;;;-0.25;86.43;101086.09;5127241;27;20023;-96
2022/01/08 07:38:42;;;;;;;14.70;8.30;;;;;;;-0.26;86.67;101086.06;5128985;27;20015;-94
2022/01/08 07:41:07;;;;;;;12.27;7.90;;;;;;;-0.25;86.68;101088.66;5138013;27;20439;-96
2022/01/08 07:43:33;;;;;;;16.17;7.77;;;;;;;-0.24;86.94;101089.50;5136019;27;20023;-95
2022/01/08 07:45:58;;;;;;;15.07;7.73;;;;;;;-0.25;86.53;101087.78;5151874;27;20117;-95
2022/01/08 07:48:23;;;;;;;12.97;7.83;;;;;;;-0.26;87.06;101092.03;5139982;27;20027;-95
2022/01/08 07:50:49;;;;;;;15.87;7.90;;;;;;;-0.26;86.65;101097.16;5136329;27;20110;-96
2022/01/08 07:53:14;;;;;;;17.47;8.40;;;;;;;-0.24;86.88;101090.38;5137040;27;20058;-96
2022/01/08 07:55:40;;;;;;;13.83;8.23;;;;;;;-0.23;86.80;101086.13;5136126;27;20043;-95
2022/01/08 07:58:05;;;;;;;18.87;8.10;;;;;;;-0.23;86.94;101087.00;5145797;27;20530;-95
2022/01/08 08:00:30;;;;;;;15.27;7.80;;;;;;;-0.21;87.31;101082.78;5134893;27;20031;-95
2022/01/08 08:02:55;;;;;;;15.07;7.63;;;;;;;-0.21;87.14;101075.13;5138620;27;20053;-96
2022/01/08 08:05:21;;;;;;;13.63;7.63;;;;;;;-0.19;87.15;101078.59;5139662;27;20050;-96
2022/01/08 08:07:46;;;;;;;15.73;7.57;;;;;;;-0.16;86.73;101082.88;5135156;27;20035;-96
2022/01/08 08:10:13;;;;;;;14.63;7.67;;;;;;;-0.16;86.70;101072.66;5135397;27;20034;-95
2022/01/08 08:12:40;;;;;;;16.77;7.70;;;;;;;-0.13;87.27;101076.97;5137495;27;20048;-94
2022/01/08 08:15:07;;;;;;;11.80;7.20;;;;;;;-0.12;86.82;101069.34;5140976;27;20031;-94
2022/01/08 08:17:33;;;;;;;17.10;7.63;;;;;;;-0.08;86.81;101083.06;5134935;27;20091;-95
2022/01/08 08:19:59;;;;;;;11.23;6.77;;;;;;;-0.07;86.64;101072.00;5137418;27;20039;-94
2022/01/08 08:22:24;;;;;;;12.70;6.93;;;;;;;-0.07;87.09;101067.72;5134386;27;20054;-95
2022/01/08 08:24:49;;;;;;;16.27;7.30;;;;;;;-0.03;86.79;101078.91;5141500;27;20388;-95
2022/01/08 08:27:16;;;;;;;16.03;7.03;;;;;;;-0.02;86.95;101075.53;5127494;27;20494;-95
2022/01/08 08:29:42;;;;;;;17.37;7.27;;;;;;;-0.01;86.52;101070.44;5156485;27;20031;-96
2022/01/08 08:32:07;;;;;;;18.33;7.07;;;;;;;0.01;87.07;101062.78;5132787;27;20053;-94
2022/01/08 08:34:33;;;;;;;15.03;7.23;;;;;;;0.01;87.16;101057.66;5137944;27;20026;-95
2022/01/08 08:36:59;;;;;;;14.80;7.10;;;;;;;0.03;86.76;101061.13;5134026;27;20485;-96
2022/01/08 08:39:25;;;;;;;15.60;7.53;;;;;;;0.04;86.98;101060.28;5130011;27;20127;-96
2022/01/08 08:41:51;;;;;;;15.83;7.73;;;;;;;0.04;87.12;101062.84;5139539;27;20466;-96
2022/01/08 08:44:16;;;;;;;13.40;6.97;;;;;;;0.06;86.92;101050.09;5130901;27;20063;-96
2022/01/08 08:46:42;;;;;;;14.23;7.37;;;;;;;0.08;87.20;101051.00;5133493;27;20477;-94
2022/01/08 08:49:08;;;;;;;12.70;7.00;;;;;;;0.09;86.76;101053.59;5125978;27;20022;-94
2022/01/08 08:51:33;;;;;;;16.47;7.43;;;;;;;0.10;87.12;101055.31;5139026;27;20105;-95
2022/01/08 08:53:59;;;;;;;16.57;7.33;;;;;;;0.12;87.20;101048.53;5142423;27;20031;-96
2022/01/08 08:56:24;;;;;;;21.97;8.47;;;;;;;0.14;86.94;101053.66;5125211;27;20014;-96
2022/01/08 08:58:50;;;;;;;13.67;7.47;;;;;;;0.14;86.92;101058.78;5127834;27;20032;-95
2022/01/08 09:01:15;;;;;;;14.83;7.23;;;;;;;0.17;87.27;101055.44;5134786;27;20065;-90
2022/01/08 09:03:40;;;;;;;15.57;7.83;;;;;;;0.19;86.77;101051.19;5141880;27;20026;-95
2022/01/08 09:06:06;;;;;;;17.30;8.40;;;;;;;0.22;86.75;101056.38;5149331;27;20102;-95
2022/01/08 09:08:31;;;;;;;18.47;8.83;;;;;;;0.24;87.20;101052.16;5142379;27;20039;-95
2022/01/08 09:10:56;;;;;;;17.27;9.00;;;;;;;0.27;86.99;101052.22;5140646;27;20025;-95
2022/01/08 09:13:24;;;;;;;19.07;9.60;;;;;;;0.30;87.11;101059.97;5139774;27;20475;-94
2022/01/08 09:15:50;;;;;;;19.10;8.70;;;;;;;0.32;86.91;101050.63;5139546;27;20031;-95
2022/01/08 09:18:16;;;;;;;21.23;8.87;;;;;;;0.34;87.04;101042.97;5144534;27;20071;-95
2022/01/08 09:20:53;;;;;;;;;;;;;;;;;;;;;
2022/01/08 09:23:18;;;;;;;19.50;9.13;;;;;;;0.38;87.04;101048.19;5132804;27;20034;-94
2022/01/08 09:25:44;;;;;;;19.63;9.40;;;;;;;0.40;87.11;101049.06;5142537;27;20053;-96
2022/01/08 09:28:09;;;;;;;22.17;10.20;;;;;;;0.43;86.78;101044.03;5136381;27;20043;-95
2022/01/08 09:30:35;;;;;;;22.03;9.43;;;;;;;0.47;86.91;101047.50;5135945;27;20015;-96
2022/01/08 09:33:00;;;;;;;22.77;9.43;;;;;;;0.50;87.17;101033.91;5145306;27;20388;-94
2022/01/08 09:35:26;;;;;;;19.10;9.90;;;;;;;0.51;87.16;101035.63;5142687;27;20011;-95
2022/01/08 09:37:52;;;;;;;23.67;10.70;;;;;;;0.52;87.36;101032.22;5139546;27;20027;-94
2022/01/08 09:40:18;;;;;;;22.83;10.87;;;;;;;0.56;86.89;101026.31;5140107;27;20062;-96
2022/01/08 09:42:49;;;;;;;23.10;10.57;;;;;;;0.59;86.99;101026.38;5141877;27;20136;-96
2022/01/08 09:45:14;;;;;;;29.00;10.57;;;;;;;0.62;87.10;101023.00;5138930;27;20019;-95
2022/01/08 09:47:40;;;;;;;22.13;10.50;;;;;;;0.65;86.93;101007.72;5143207;27;20496;-95
2022/01/08 09:50:07;;;;;;;23.13;10.77;;;;;;;0.68;86.98;101003.53;5137568;27;20422;-96
2022/01/08 09:52:33;;;;;;;23.20;11.23;;;;;;;0.70;86.97;101001.81;5136003;27;20022;-96
2022/01/08 09:54:59;;;;;;;20.70;10.47;;;;;;;0.73;87.10;100994.19;5142322;27;20027;-95
2022/01/08 09:57:24;;;;;;;20.83;11.03;;;;;;;0.77;87.02;100989.13;5141417;27;20051;-96
2022/01/08 09:59:50;;;;;;;26.97;10.97;;;;;;;0.80;87.15;100982.38;5144306;27;20026;-95
2022/01/08 10:02:22;;;;;;;22.07;11.60;;;;;;;0.84;87.27;100968.78;5146428;27;20106;-95
2022/01/08 10:04:49;;;;;;;22.97;11.60;;;;;;;0.88;87.26;100969.69;5144858;27;20164;-96
2022/01/08 10:07:26;;;;;;;24.03;11.53;;;;;;;0.94;87.01;100961.25;5142423;27;20394;-96
2022/01/08 10:10:14;;;;;;;32.33;13.00;;;;;;;0.99;86.58;100952.81;5139045;27;20035;-95
2022/01/08 10:12:54;;;;;;;23.03;11.20;;;;;;;1.03;86.77;100944.31;5141055;27;20054;-96
2022/01/08 10:18:36;;;;;;;24.77;11.60;;;;;;;1.12;86.12;100937.59;5147173;27;20132;-96
2022/01/08 10:21:16;;;;;;;23.60;12.03;;;;;;;1.13;86.17;100926.53;5143145;27;20031;-96
2022/01/08 10:23:44;;;;;;;25.10;11.87;;;;;;;1.14;86.36;100915.44;5141955;27;20109;-96
2022/01/08 10:26:17;;;;;;;26.43;12.53;;;;;;;1.17;86.50;100911.19;5102491;28;20215;-95
2022/01/08 10:28:51;;;;;;;28.03;12.37;;;;;;;1.23;86.47;100899.31;5099544;28;20045;-96
2022/01/08 10:31:21;;;;;;;23.77;11.17;;;;;;;1.29;86.34;100895.13;5101895;28;20042;-96
2022/01/08 10:34:05;;;;;;;25.27;11.27;;;;;;;1.31;86.03;100883.22;5103406;28;20504;-95
2022/01/08 10:36:42;;;;;;;26.47;12.13;;;;;;;1.31;86.40;100872.97;5104364;28;20015;-96
2022/01/08 10:39:25;;;;;;;29.03;11.47;;;;;;;1.34;86.49;100862.75;5102993;28;20475;-96
2022/01/08 10:41:53;;;;;;;24.27;10.67;;;;;;;1.36;86.23;100865.31;5096693;28;20592;-96
2022/01/08 10:44:27;;;;;;;23.63;11.03;;;;;;;1.38;86.06;100868.78;5103171;28;20048;-96
2022/01/08 10:47:00;;;;;;;25.00;11.43;;;;;;;1.40;86.29;100855.97;5096727;28;20063;-96
2022/01/08 10:49:36;;;;;;;19.40;9.37;;;;;;;1.44;86.09;100853.47;5102699;28;20020;-95
2022/01/08 10:52:07;;;;;;;21.20;10.33;;;;;;;1.45;85.67;100837.22;5101467;28;20080;-95
2022/01/08 10:54:37;;;;;;;25.90;10.82;;;;;;;1.48;85.73;100833.84;5108415;28;20029;-95
2022/01/08 10:57:08;;;;;;;24.87;11.13;;;;;;;1.51;85.55;100833.88;5095757;28;20020;-95
2022/01/08 10:59:35;;;;;;;26.40;10.40;;;;;;;1.52;85.87;100827.94;5087644;28;20852;-95
2022/01/08 11:02:02;;;;;;;22.23;9.37;;;;;;;1.54;86.26;100823.66;5071288;28;20035;-96
2022/01/08 11:04:54;;;;;;;20.60;9.53;;;;;;;1.59;85.72;100822.00;5109920;28;20030;-93
2022/01/08 11:07:27;;;;;;;23.02;9.80;;;;;;;1.65;85.64;100810.94;5112416;28;20024;-95
2022/01/08 11:09:55;;;;;;;21.30;10.23;;;;;;;1.69;85.73;100804.16;5111461;28;20098;-95
2022/01/08 11:12:29;;;;;;;20.70;9.80;;;;;;;1.73;85.46;100798.19;5092108;28;20032;-96
2022/01/08 11:15:22;;;;;;;20.77;9.53;;;;;;;1.78;85.16;100786.28;5091449;28;20016;-93
2022/01/08 11:17:48;;;;;;;20.10;8.97;;;;;;;1.81;85.09;100771.78;5091845;28;20036;-95
2022/01/08 11:20:24;;;;;;;21.23;9.33;;;;;;;1.88;84.85;100770.13;5094075;28;20036;-96
2022/01/08 11:22:52;;;;;;;19.93;8.53;;;;;;;1.91;85.13;100777.00;5089285;28;20020;-96
2022/01/08 11:25:23;;;;;;;22.83;9.33;;;;;;;1.93;84.66;100773.59;5123861;27;20092;-93
2022/01/08 11:28:11;;;;;;;19.63;8.77;;;;;;;1.95;84.99;100761.66;5124503;27;20031;-95
2022/01/08 11:30:43;;;;;;;19.70;9.37;;;;;;;2.00;84.79;100756.53;5133234;27;20027;-95
2022/01/08 11:33:19;;;;;;;;;;;;;;;2.06;85.06;100750.59;5132284;27;20110;-95
2022/01/08 11:35:47;;;;;;;17.90;8.10;;;;;;;2.05;84.65;100744.63;5129227;27;19923;-92
2022/01/08 11:38:16;;;;;;;18.20;8.30;;;;;;;2.06;84.58;100742.91;5124153;27;20036;-92